Coslada, Spain
Current Conditions -  °F | °C
As of 4:30 AM on Sunday 23 Nov 2014 (Local Time) from LEMD Reporting Station
Clear Clear  
Wind Chill: 55°   Ceiling: Unl
Heat Index: 55°   Visibility: 6mi
Dew Point: 48°   Wind: 3mph
Humidity: 77%   Direction: 330°NNW
Pressure: 29.88"   Gusts: NA
Location:  40.42°N, 3.56°W
Report Text: LEMD 230330Z 33003KT CAVOK 13/09 Q1012 NOSIG
Loading
Personal Weather Stations






























Interactive Weather Map New forecast layout! Learn more

10-Day Weather Forecast

Advertisements
Track Severe Weather on mobile